sensor_id;sensor_type;location;lat;lon;timestamp;temperature;humidity
15749;DHT22;7976;52.526;13.326;2023-04-29T00:01:25;12.80;99.90
15749;DHT22;7976;52.526;13.326;2023-04-29T00:03:54;12.80;99.90
15749;DHT22;7976;52.526;13.326;2023-04-29T00:06:21;12.80;99.90
15749;DHT22;7976;52.526;13.326;2023-04-29T00:08:48;12.80;99.90
15749;DHT22;7976;52.526;13.326;2023-04-29T00:11:16;12.80;99.90
15749;DHT22;7976;52.526;13.326;2023-04-29T00:13:43;12.80;99.90
15749;DHT22;7976;52.526;13.326;2023-04-29T00:16:10;12.70;99.90
15749;DHT22;7976;52.526;13.326;2023-04-29T00:18:36;12.70;99.90
15749;DHT22;7976;52.526;13.326;2023-04-29T00:21:05;12.70;99.90
15749;DHT22;7976;52.526;13.326;2023-04-29T00:23:32;12.70;99.90
15749;DHT22;7976;52.526;13.326;2023-04-29T00:25:59;12.70;99.90
15749;DHT22;7976;52.526;13.326;2023-04-29T00:28:26;12.70;99.90
15749;DHT22;7976;52.526;13.326;2023-04-29T00:30:53;12.70;99.90
15749;DHT22;7976;52.526;13.326;2023-04-29T00:33:20;12.70;99.90
15749;DHT22;7976;52.526;13.326;2023-04-29T00:35:47;12.60;99.90
15749;DHT22;7976;52.526;13.326;2023-04-29T00:38:15;12.60;99.90
15749;DHT22;7976;52.526;13.326;2023-04-29T00:40:42;12.60;99.90
15749;DHT22;7976;52.526;13.326;2023-04-29T00:43:10;12.60;99.90
15749;DHT22;7976;52.526;13.326;2023-04-29T00:45:37;12.60;99.90
15749;DHT22;7976;52.526;13.326;2023-04-29T00:48:04;12.60;99.90
15749;DHT22;7976;52.526;13.326;2023-04-29T00:50:31;12.60;99.90
15749;DHT22;7976;52.526;13.326;2023-04-29T00:52:58;12.60;99.90
15749;DHT22;7976;52.526;13.326;2023-04-29T00:55:27;12.60;99.90
15749;DHT22;7976;52.526;13.326;2023-04-29T00:57:56;12.60;99.90
15749;DHT22;7976;52.526;13.326;2023-04-29T01:00:23;12.60;99.90
15749;DHT22;7976;52.526;13.326;2023-04-29T01:02:51;12.60;99.90
15749;DHT22;7976;52.526;13.326;2023-04-29T01:05:21;12.60;99.90
15749;DHT22;7976;52.526;13.326;2023-04-29T01:07:58;12.60;99.90
15749;DHT22;7976;52.526;13.326;2023-04-29T01:10:44;12.60;99.90
15749;DHT22;7976;52.526;13.326;2023-04-29T01:13:29;12.40;99.90
15749;DHT22;7976;52.526;13.326;2023-04-29T01:16:03;12.20;99.90
15749;DHT22;7976;52.526;13.326;2023-04-29T01:18:36;12.00;99.90
15749;DHT22;7976;52.526;13.326;2023-04-29T01:21:08;12.00;99.90
15749;DHT22;7976;52.526;13.326;2023-04-29T01:23:36;11.90;99.90
15749;DHT22;7976;52.526;13.326;2023-04-29T01:26:03;11.90;99.90
15749;DHT22;7976;52.526;13.326;2023-04-29T01:28:58;11.90;99.90
15749;DHT22;7976;52.526;13.326;2023-04-29T01:31:40;11.90;99.90
15749;DHT22;7976;52.526;13.326;2023-04-29T01:34:17;11.90;99.90
15749;DHT22;7976;52.526;13.326;2023-04-29T01:37:04;11.90;99.90
15749;DHT22;7976;52.526;13.326;2023-04-29T01:39:55;11.90;99.90
15749;DHT22;7976;52.526;13.326;2023-04-29T01:42:37;11.80;99.90
15749;DHT22;7976;52.526;13.326;2023-04-29T01:45:10;11.80;99.90
15749;DHT22;7976;52.526;13.326;2023-04-29T01:47:42;11.70;99.90
15749;DHT22;7976;52.526;13.326;2023-04-29T01:50:10;11.60;99.90
15749;DHT22;7976;52.526;13.326;2023-04-29T01:52:38;11.60;99.90
15749;DHT22;7976;52.526;13.326;2023-04-29T01:55:07;11.60;99.90
15749;DHT22;7976;52.526;13.326;2023-04-29T01:57:46;11.60;99.90
15749;DHT22;7976;52.526;13.326;2023-04-29T02:00:27;11.50;99.90
15749;DHT22;7976;52.526;13.326;2023-04-29T02:02:54;11.50;99.90
15749;DHT22;7976;52.526;13.326;2023-04-29T02:05:27;11.50;99.90
15749;DHT22;7976;52.526;13.326;2023-04-29T02:07:57;11.40;99.90
15749;DHT22;7976;52.526;13.326;2023-04-29T02:10:25;11.40;99.90
15749;DHT22;7976;52.526;13.326;2023-04-29T02:13:00;11.40;99.90
15749;DHT22;7976;52.526;13.326;2023-04-29T02:15:28;11.40;99.90
15749;DHT22;7976;52.526;13.326;2023-04-29T02:17:55;11.40;99.90
15749;DHT22;7976;52.526;13.326;2023-04-29T02:20:22;11.40;99.90
15749;DHT22;7976;52.526;13.326;2023-04-29T02:22:49;11.40;99.90
15749;DHT22;7976;52.526;13.326;2023-04-29T02:25:16;11.40;99.90
15749;DHT22;7976;52.526;13.326;2023-04-29T02:27:44;11.40;99.90
15749;DHT22;7976;52.526;13.326;2023-04-29T02:30:11;11.40;99.90
15749;DHT22;7976;52.526;13.326;2023-04-29T02:32:39;11.40;99.90
15749;DHT22;7976;52.526;13.326;2023-04-29T02:35:06;11.40;99.90
15749;DHT22;7976;52.526;13.326;2023-04-29T02:37:33;11.50;99.90
15749;DHT22;7976;52.526;13.326;2023-04-29T02:40:01;11.40;99.90
15749;DHT22;7976;52.526;13.326;2023-04-29T02:42:29;11.50;99.90
15749;DHT22;7976;52.526;13.326;2023-04-29T02:44:58;11.50;99.90
15749;DHT22;7976;52.526;13.326;2023-04-29T02:47:25;11.50;99.90
15749;DHT22;7976;52.526;13.326;2023-04-29T02:49:52;11.50;99.90
15749;DHT22;7976;52.526;13.326;2023-04-29T02:52:19;11.60;99.90
15749;DHT22;7976;52.526;13.326;2023-04-29T02:54:46;11.60;99.90
15749;DHT22;7976;52.526;13.326;2023-04-29T02:57:13;11.60;99.90
15749;DHT22;7976;52.526;13.326;2023-04-29T02:59:40;11.70;99.90
15749;DHT22;7976;52.526;13.326;2023-04-29T03:02:08;11.70;99.90
15749;DHT22;7976;52.526;13.326;2023-04-29T03:04:35;11.70;99.90
15749;DHT22;7976;52.526;13.326;2023-04-29T03:07:04;11.80;99.90
15749;DHT22;7976;52.526;13.326;2023-04-29T03:09:32;11.70;99.90
15749;DHT22;7976;52.526;13.326;2023-04-29T03:12:00;11.80;99.90
15749;DHT22;7976;52.526;13.326;2023-04-29T03:14:27;11.80;99.90
15749;DHT22;7976;52.526;13.326;2023-04-29T03:16:54;11.80;99.90
15749;DHT22;7976;52.526;13.326;2023-04-29T03:19:23;11.80;99.90
15749;DHT22;7976;52.526;13.326;2023-04-29T03:21:50;11.80;99.90
15749;DHT22;7976;52.526;13.326;2023-04-29T03:24:17;11.80;99.90
15749;DHT22;7976;52.526;13.326;2023-04-29T03:26:47;11.80;99.90
15749;DHT22;7976;52.526;13.326;2023-04-29T03:29:19;11.80;99.90
15749;DHT22;7976;52.526;13.326;2023-04-29T03:31:46;11.80;99.90
15749;DHT22;7976;52.526;13.326;2023-04-29T03:34:13;11.80;99.90
15749;DHT22;7976;52.526;13.326;2023-04-29T03:36:46;11.90;99.90
15749;DHT22;7976;52.526;13.326;2023-04-29T03:39:13;11.90;99.90
15749;DHT22;7976;52.526;13.326;2023-04-29T03:41:41;11.90;99.90
15749;DHT22;7976;52.526;13.326;2023-04-29T03:44:08;11.90;99.90
15749;DHT22;7976;52.526;13.326;2023-04-29T03:46:35;11.90;99.90
15749;DHT22;7976;52.526;13.326;2023-04-29T03:49:02;11.90;99.90
15749;DHT22;7976;52.526;13.326;2023-04-29T03:51:29;11.90;99.90
15749;DHT22;7976;52.526;13.326;2023-04-29T03:54:09;11.90;99.90
15749;DHT22;7976;52.526;13.326;2023-04-29T03:56:36;12.00;99.90
15749;DHT22;7976;52.526;13.326;2023-04-29T03:59:03;12.00;99.90
15749;DHT22;7976;52.526;13.326;2023-04-29T04:01:30;12.00;99.90
15749;DHT22;7976;52.526;13.326;2023-04-29T04:03:57;12.00;99.90
15749;DHT22;7976;52.526;13.326;2023-04-29T04:06:24;12.00;99.90
15749;DHT22;7976;52.526;13.326;2023-04-29T04:08:51;12.00;99.90
15749;DHT22;7976;52.526;13.326;2023-04-29T04:11:25;12.00;99.90
15749;DHT22;7976;52.526;13.326;2023-04-29T04:13:58;12.00;99.90
15749;DHT22;7976;52.526;13.326;2023-04-29T04:16:25;12.10;99.90
15749;DHT22;7976;52.526;13.326;2023-04-29T04:18:51;12.10;99.90
15749;DHT22;7976;52.526;13.326;2023-04-29T04:21:18;12.10;99.90
15749;DHT22;7976;52.526;13.326;2023-04-29T04:23:53;12.10;99.90
15749;DHT22;7976;52.526;13.326;2023-04-29T04:26:22;12.20;99.90
15749;DHT22;7976;52.526;13.326;2023-04-29T04:29:22;12.20;99.90
15749;DHT22;7976;52.526;13.326;2023-04-29T04:31:58;12.20;99.90
15749;DHT22;7976;52.526;13.326;2023-04-29T04:34:24;12.20;99.90
15749;DHT22;7976;52.526;13.326;2023-04-29T04:36:54;12.20;99.90
15749;DHT22;7976;52.526;13.326;2023-04-29T04:39:21;12.20;99.90
15749;DHT22;7976;52.526;13.326;2023-04-29T04:41:48;12.20;99.90
15749;DHT22;7976;52.526;13.326;2023-04-29T04:44:15;12.30;99.90
15749;DHT22;7976;52.526;13.326;2023-04-29T04:47:02;12.30;99.90
15749;DHT22;7976;52.526;13.326;2023-04-29T04:49:48;12.30;99.90
15749;DHT22;7976;52.526;13.326;2023-04-29T04:52:19;12.30;99.90
15749;DHT22;7976;52.526;13.326;2023-04-29T04:54:52;12.30;99.90
15749;DHT22;7976;52.526;13.326;2023-04-29T04:57:22;12.30;99.90
15749;DHT22;7976;52.526;13.326;2023-04-29T04:59:50;12.30;99.90
15749;DHT22;7976;52.526;13.326;2023-04-29T05:02:18;12.30;99.90
15749;DHT22;7976;52.526;13.326;2023-04-29T05:04:45;12.30;99.90
15749;DHT22;7976;52.526;13.326;2023-04-29T05:07:14;12.40;99.90
15749;DHT22;7976;52.526;13.326;2023-04-29T05:09:57;12.30;99.90
15749;DHT22;7976;52.526;13.326;2023-04-29T05:12:26;12.40;99.90
15749;DHT22;7976;52.526;13.326;2023-04-29T05:14:55;12.40;99.90
15749;DHT22;7976;52.526;13.326;2023-04-29T05:17:24;12.30;99.90
15749;DHT22;7976;52.526;13.326;2023-04-29T05:19:52;12.40;99.90
15749;DHT22;7976;52.526;13.326;2023-04-29T05:22:19;12.30;99.90
15749;DHT22;7976;52.526;13.326;2023-04-29T05:24:45;12.30;99.90
15749;DHT22;7976;52.526;13.326;2023-04-29T05:27:12;12.30;99.90
15749;DHT22;7976;52.526;13.326;2023-04-29T05:29:39;12.40;99.90
15749;DHT22;7976;52.526;13.326;2023-04-29T05:32:06;12.40;99.90
15749;DHT22;7976;52.526;13.326;2023-04-29T05:34:34;12.40;99.90
15749;DHT22;7976;52.526;13.326;2023-04-29T05:37:01;12.40;99.90
15749;DHT22;7976;52.526;13.326;2023-04-29T05:39:29;12.40;99.90
15749;DHT22;7976;52.526;13.326;2023-04-29T05:42:06;12.40;99.90
15749;DHT22;7976;52.526;13.326;2023-04-29T05:44:40;12.40;99.90
15749;DHT22;7976;52.526;13.326;2023-04-29T05:47:07;12.40;99.90
15749;DHT22;7976;52.526;13.326;2023-04-29T05:49:35;12.40;99.90
15749;DHT22;7976;52.526;13.326;2023-04-29T05:52:02;12.50;99.90
15749;DHT22;7976;52.526;13.326;2023-04-29T05:54:32;12.50;99.90
15749;DHT22;7976;52.526;13.326;2023-04-29T05:57:00;12.50;99.90
15749;DHT22;7976;52.526;13.326;2023-04-29T05:59:27;12.50;99.90
15749;DHT22;7976;52.526;13.326;2023-04-29T06:01:55;12.50;99.90
15749;DHT22;7976;52.526;13.326;2023-04-29T06:04:22;12.50;99.90
15749;DHT22;7976;52.526;13.326;2023-04-29T06:07:19;12.50;99.90
15749;DHT22;7976;52.526;13.326;2023-04-29T06:09:56;12.50;99.90
15749;DHT22;7976;52.526;13.326;2023-04-29T06:12:25;12.60;99.90
15749;DHT22;7976;52.526;13.326;2023-04-29T06:14:51;12.50;99.90
15749;DHT22;7976;52.526;13.326;2023-04-29T06:17:19;12.50;99.90
15749;DHT22;7976;52.526;13.326;2023-04-29T06:19:46;12.60;99.90
15749;DHT22;7976;52.526;13.326;2023-04-29T06:22:12;12.60;99.90
15749;DHT22;7976;52.526;13.326;2023-04-29T06:24:47;12.50;99.90
15749;DHT22;7976;52.526;13.326;2023-04-29T06:27:21;12.60;99.90
15749;DHT22;7976;52.526;13.326;2023-04-29T06:29:48;12.60;99.90
15749;DHT22;7976;52.526;13.326;2023-04-29T06:32:15;12.50;99.90
15749;DHT22;7976;52.526;13.326;2023-04-29T06:34:42;12.50;99.90
15749;DHT22;7976;52.526;13.326;2023-04-29T06:37:25;12.60;99.90
15749;DHT22;7976;52.526;13.326;2023-04-29T06:40:06;12.60;99.90
15749;DHT22;7976;52.526;13.326;2023-04-29T06:42:52;12.60;99.90
15749;DHT22;7976;52.526;13.326;2023-04-29T06:45:44;12.60;99.90
15749;DHT22;7976;52.526;13.326;2023-04-29T06:48:28;12.60;99.90
15749;DHT22;7976;52.526;13.326;2023-04-29T06:50:56;12.60;99.90
15749;DHT22;7976;52.526;13.326;2023-04-29T06:53:25;12.50;99.90
15749;DHT22;7976;52.526;13.326;2023-04-29T06:55:54;12.50;99.90
15749;DHT22;7976;52.526;13.326;2023-04-29T06:58:20;12.50;99.90
15749;DHT22;7976;52.526;13.326;2023-04-29T07:00:49;12.50;99.90
15749;DHT22;7976;52.526;13.326;2023-04-29T07:03:17;12.50;99.90
15749;DHT22;7976;52.526;13.326;2023-04-29T07:05:44;12.50;99.90
15749;DHT22;7976;52.526;13.326;2023-04-29T07:08:12;12.50;99.90
15749;DHT22;7976;52.526;13.326;2023-04-29T07:10:39;12.40;99.90
15749;DHT22;7976;52.526;13.326;2023-04-29T07:13:08;12.40;99.90
15749;DHT22;7976;52.526;13.326;2023-04-29T07:15:35;12.40;99.90
15749;DHT22;7976;52.526;13.326;2023-04-29T07:18:03;12.40;99.90
15749;DHT22;7976;52.526;13.326;2023-04-29T07:20:30;12.40;99.90
15749;DHT22;7976;52.526;13.326;2023-04-29T07:22:57;12.40;99.90
15749;DHT22;7976;52.526;13.326;2023-04-29T07:25:25;12.40;99.90
15749;DHT22;7976;52.526;13.326;2023-04-29T07:27:54;12.40;99.90
15749;DHT22;7976;52.526;13.326;2023-04-29T07:30:25;12.40;99.90
15749;DHT22;7976;52.526;13.326;2023-04-29T07:32:51;12.40;99.90
15749;DHT22;7976;52.526;13.326;2023-04-29T07:35:19;12.30;99.90
15749;DHT22;7976;52.526;13.326;2023-04-29T07:37:46;12.40;99.90
15749;DHT22;7976;52.526;13.326;2023-04-29T07:40:12;12.30;99.90
15749;DHT22;7976;52.526;13.326;2023-04-29T07:42:39;12.30;99.90
15749;DHT22;7976;52.526;13.326;2023-04-29T07:45:07;12.30;99.90
15749;DHT22;7976;52.526;13.326;2023-04-29T07:47:35;12.30;99.90
15749;DHT22;7976;52.526;13.326;2023-04-29T07:50:02;12.30;99.90
15749;DHT22;7976;52.526;13.326;2023-04-29T07:52:30;12.30;99.90
15749;DHT22;7976;52.526;13.326;2023-04-29T07:54:56;12.30;99.90
15749;DHT22;7976;52.526;13.326;2023-04-29T07:57:23;12.20;99.90
15749;DHT22;7976;52.526;13.326;2023-04-29T07:59:51;12.20;99.90
15749;DHT22;7976;52.526;13.326;2023-04-29T08:02:18;12.20;99.90
15749;DHT22;7976;52.526;13.326;2023-04-29T08:04:47;12.20;99.90
15749;DHT22;7976;52.526;13.326;2023-04-29T08:07:16;12.20;99.90
15749;DHT22;7976;52.526;13.326;2023-04-29T08:09:43;12.20;99.90
15749;DHT22;7976;52.526;13.326;2023-04-29T08:12:09;12.20;99.90
15749;DHT22;7976;52.526;13.326;2023-04-29T08:14:39;12.20;99.90
15749;DHT22;7976;52.526;13.326;2023-04-29T08:17:06;12.20;99.90
15749;DHT22;7976;52.526;13.326;2023-04-29T08:19:33;12.20;99.90
15749;DHT22;7976;52.526;13.326;2023-04-29T08:22:01;12.10;99.90
15749;DHT22;7976;52.526;13.326;2023-04-29T08:24:29;12.10;99.90
15749;DHT22;7976;52.526;13.326;2023-04-29T08:26:58;12.00;99.90
15749;DHT22;7976;52.526;13.326;2023-04-29T08:29:24;12.00;99.90
15749;DHT22;7976;52.526;13.326;2023-04-29T08:31:52;12.00;99.90
15749;DHT22;7976;52.526;13.326;2023-04-29T08:34:18;12.00;99.90
15749;DHT22;7976;52.526;13.326;2023-04-29T08:36:45;12.00;99.90
15749;DHT22;7976;52.526;13.326;2023-04-29T08:39:13;12.00;99.90
15749;DHT22;7976;52.526;13.326;2023-04-29T08:41:40;12.00;99.90
15749;DHT22;7976;52.526;13.326;2023-04-29T08:44:09;12.00;99.90
15749;DHT22;7976;52.526;13.326;2023-04-29T08:46:37;12.00;99.90
15749;DHT22;7976;52.526;13.326;2023-04-29T08:49:04;12.00;99.90
15749;DHT22;7976;52.526;13.326;2023-04-29T08:51:31;12.00;99.90
15749;DHT22;7976;52.526;13.326;2023-04-29T08:53:59;11.90;99.90
15749;DHT22;7976;52.526;13.326;2023-04-29T08:56:29;11.90;99.90
15749;DHT22;7976;52.526;13.326;2023-04-29T08:58:57;12.00;99.90
15749;DHT22;7976;52.526;13.326;2023-04-29T09:01:26;12.00;99.90
15749;DHT22;7976;52.526;13.326;2023-04-29T09:04:02;11.90;99.90
15749;DHT22;7976;52.526;13.326;2023-04-29T09:06:34;12.00;99.90
15749;DHT22;7976;52.526;13.326;2023-04-29T09:09:02;12.00;99.90
15749;DHT22;7976;52.526;13.326;2023-04-29T09:11:31;12.00;99.90
15749;DHT22;7976;52.526;13.326;2023-04-29T09:13:59;12.00;99.90
15749;DHT22;7976;52.526;13.326;2023-04-29T09:16:28;12.00;99.90
15749;DHT22;7976;52.526;13.326;2023-04-29T09:18:55;12.00;99.90
15749;DHT22;7976;52.526;13.326;2023-04-29T09:21:24;12.00;99.90
15749;DHT22;7976;52.526;13.326;2023-04-29T09:23:53;12.00;99.90
15749;DHT22;7976;52.526;13.326;2023-04-29T09:26:23;12.00;99.90
15749;DHT22;7976;52.526;13.326;2023-04-29T09:29:07;12.00;99.90
15749;DHT22;7976;52.526;13.326;2023-04-29T09:31:36;12.00;99.90
15749;DHT22;7976;52.526;13.326;2023-04-29T09:34:04;12.00;99.90
15749;DHT22;7976;52.526;13.326;2023-04-29T09:36:41;12.00;99.90
15749;DHT22;7976;52.526;13.326;2023-04-29T09:39:12;12.10;99.90
15749;DHT22;7976;52.526;13.326;2023-04-29T09:41:57;12.10;99.90
15749;DHT22;7976;52.526;13.326;2023-04-29T09:44:29;12.10;99.90
15749;DHT22;7976;52.526;13.326;2023-04-29T09:47:01;12.10;99.90
15749;DHT22;7976;52.526;13.326;2023-04-29T09:49:30;12.10;99.90
15749;DHT22;7976;52.526;13.326;2023-04-29T09:52:01;12.10;99.90
15749;DHT22;7976;52.526;13.326;2023-04-29T09:54:31;12.20;99.90
15749;DHT22;7976;52.526;13.326;2023-04-29T09:57:01;12.10;99.90
15749;DHT22;7976;52.526;13.326;2023-04-29T09:59:32;12.10;99.90
15749;DHT22;7976;52.526;13.326;2023-04-29T10:02:01;12.00;99.90
15749;DHT22;7976;52.526;13.326;2023-04-29T10:04:34;12.00;99.90
15749;DHT22;7976;52.526;13.326;2023-04-29T10:07:06;12.10;99.90
15749;DHT22;7976;52.526;13.326;2023-04-29T10:09:36;12.10;99.90
15749;DHT22;7976;52.526;13.326;2023-04-29T10:12:06;12.10;99.90
15749;DHT22;7976;52.526;13.326;2023-04-29T10:14:42;12.10;99.90
15749;DHT22;7976;52.526;13.326;2023-04-29T10:17:17;12.20;99.90
15749;DHT22;7976;52.526;13.326;2023-04-29T10:19:57;12.20;99.90
15749;DHT22;7976;52.526;13.326;2023-04-29T10:22:34;12.20;99.90
15749;DHT22;7976;52.526;13.326;2023-04-29T10:25:09;12.20;99.90
15749;DHT22;7976;52.526;13.326;2023-04-29T10:27:36;12.30;99.90
15749;DHT22;7976;52.526;13.326;2023-04-29T10:30:10;12.30;99.90
15749;DHT22;7976;52.526;13.326;2023-04-29T10:32:39;12.40;99.90
15749;DHT22;7976;52.526;13.326;2023-04-29T10:35:08;12.50;99.90
15749;DHT22;7976;52.526;13.326;2023-04-29T10:37:37;12.60;99.90
15749;DHT22;7976;52.526;13.326;2023-04-29T10:40:10;12.60;99.90
15749;DHT22;7976;52.526;13.326;2023-04-29T10:42:44;12.60;99.90
15749;DHT22;7976;52.526;13.326;2023-04-29T10:45:21;12.70;99.90
15749;DHT22;7976;52.526;13.326;2023-04-29T10:48:10;12.60;99.90
15749;DHT22;7976;52.526;13.326;2023-04-29T10:50:59;12.60;99.90
15749;DHT22;7976;52.526;13.326;2023-04-29T10:53:28;12.60;99.90
15749;DHT22;7976;52.526;13.326;2023-04-29T10:55:57;12.50;99.90
15749;DHT22;7976;52.526;13.326;2023-04-29T10:58:36;12.50;99.90
15749;DHT22;7976;52.526;13.326;2023-04-29T11:01:11;12.70;99.90
15749;DHT22;7976;52.526;13.326;2023-04-29T11:03:48;12.90;99.90
15749;DHT22;7976;52.526;13.326;2023-04-29T11:06:21;13.20;99.90
15749;DHT22;7976;52.526;13.326;2023-04-29T11:08:59;13.40;99.90
15749;DHT22;7976;52.526;13.326;2023-04-29T11:11:40;13.40;99.90
15749;DHT22;7976;52.526;13.326;2023-04-29T11:14:14;13.40;99.90
15749;DHT22;7976;52.526;13.326;2023-04-29T11:16:51;13.40;99.90
15749;DHT22;7976;52.526;13.326;2023-04-29T11:19:19;13.30;99.90
15749;DHT22;7976;52.526;13.326;2023-04-29T11:22:05;13.50;99.90
15749;DHT22;7976;52.526;13.326;2023-04-29T11:24:36;13.80;99.90
15749;DHT22;7976;52.526;13.326;2023-04-29T11:27:15;14.10;99.90
15749;DHT22;7976;52.526;13.326;2023-04-29T11:29:44;14.20;99.90
15749;DHT22;7976;52.526;13.326;2023-04-29T11:32:13;14.30;99.90
15749;DHT22;7976;52.526;13.326;2023-04-29T11:34:40;14.40;99.90
15749;DHT22;7976;52.526;13.326;2023-04-29T11:37:08;14.40;99.90
15749;DHT22;7976;52.526;13.326;2023-04-29T11:39:36;14.50;99.90
15749;DHT22;7976;52.526;13.326;2023-04-29T11:42:04;14.50;99.90
15749;DHT22;7976;52.526;13.326;2023-04-29T11:44:33;14.50;99.90
15749;DHT22;7976;52.526;13.326;2023-04-29T11:47:02;14.50;99.90
15749;DHT22;7976;52.526;13.326;2023-04-29T11:49:30;14.50;99.90
15749;DHT22;7976;52.526;13.326;2023-04-29T11:51:58;14.50;99.90
15749;DHT22;7976;52.526;13.326;2023-04-29T11:54:25;14.70;99.90
15749;DHT22;7976;52.526;13.326;2023-04-29T11:56:53;14.70;99.90
15749;DHT22;7976;52.526;13.326;2023-04-29T11:59:21;14.80;99.90
15749;DHT22;7976;52.526;13.326;2023-04-29T12:01:48;14.80;99.90
15749;DHT22;7976;52.526;13.326;2023-04-29T12:04:15;14.80;99.90
15749;DHT22;7976;52.526;13.326;2023-04-29T12:06:43;14.60;99.90
15749;DHT22;7976;52.526;13.326;2023-04-29T12:09:11;14.60;99.90
15749;DHT22;7976;52.526;13.326;2023-04-29T12:11:39;14.50;99.90
15749;DHT22;7976;52.526;13.326;2023-04-29T12:14:07;14.40;99.90
15749;DHT22;7976;52.526;13.326;2023-04-29T12:16:34;14.30;99.90
15749;DHT22;7976;52.526;13.326;2023-04-29T12:19:02;14.20;99.90
15749;DHT22;7976;52.526;13.326;2023-04-29T12:21:29;14.10;99.90
15749;DHT22;7976;52.526;13.326;2023-04-29T12:24:01;14.00;99.90
15749;DHT22;7976;52.526;13.326;2023-04-29T12:26:29;13.90;99.90
15749;DHT22;7976;52.526;13.326;2023-04-29T12:28:58;13.90;99.90
15749;DHT22;7976;52.526;13.326;2023-04-29T12:31:31;14.00;99.90
15749;DHT22;7976;52.526;13.326;2023-04-29T12:34:00;14.10;99.90
15749;DHT22;7976;52.526;13.326;2023-04-29T12:36:29;14.40;99.90
15749;DHT22;7976;52.526;13.326;2023-04-29T12:38:59;14.50;99.90
15749;DHT22;7976;52.526;13.326;2023-04-29T12:41:36;14.60;99.90
15749;DHT22;7976;52.526;13.326;2023-04-29T12:44:05;14.60;99.90
15749;DHT22;7976;52.526;13.326;2023-04-29T12:46:36;14.60;99.90
15749;DHT22;7976;52.526;13.326;2023-04-29T12:49:04;14.80;99.90
15749;DHT22;7976;52.526;13.326;2023-04-29T12:51:33;14.80;99.90
15749;DHT22;7976;52.526;13.326;2023-04-29T12:54:03;14.90;99.90
15749;DHT22;7976;52.526;13.326;2023-04-29T12:56:31;15.10;99.90
15749;DHT22;7976;52.526;13.326;2023-04-29T12:59:04;15.30;99.90
15749;DHT22;7976;52.526;13.326;2023-04-29T13:01:32;15.60;99.90
15749;DHT22;7976;52.526;13.326;2023-04-29T13:03:59;15.80;99.90
15749;DHT22;7976;52.526;13.326;2023-04-29T13:06:26;15.90;99.90
15749;DHT22;7976;52.526;13.326;2023-04-29T13:08:53;16.10;99.90
15749;DHT22;7976;52.526;13.326;2023-04-29T13:11:22;16.10;99.90
15749;DHT22;7976;52.526;13.326;2023-04-29T13:13:49;16.10;99.90
15749;DHT22;7976;52.526;13.326;2023-04-29T13:16:16;16.20;99.90
15749;DHT22;7976;52.526;13.326;2023-04-29T13:18:44;16.10;99.90
15749;DHT22;7976;52.526;13.326;2023-04-29T13:21:10;16.10;99.90
15749;DHT22;7976;52.526;13.326;2023-04-29T13:23:37;16.00;99.90
15749;DHT22;7976;52.526;13.326;2023-04-29T13:26:04;15.90;99.90
15749;DHT22;7976;52.526;13.326;2023-04-29T13:28:34;15.80;99.90
15749;DHT22;7976;52.526;13.326;2023-04-29T13:31:01;15.80;99.90
15749;DHT22;7976;52.526;13.326;2023-04-29T13:33:28;15.80;99.90
15749;DHT22;7976;52.526;13.326;2023-04-29T13:35:55;15.80;99.90
15749;DHT22;7976;52.526;13.326;2023-04-29T13:38:22;15.70;99.90
15749;DHT22;7976;52.526;13.326;2023-04-29T13:40:49;15.80;99.90
15749;DHT22;7976;52.526;13.326;2023-04-29T13:43:16;15.90;99.90
15749;DHT22;7976;52.526;13.326;2023-04-29T13:45:44;16.10;99.90
15749;DHT22;7976;52.526;13.326;2023-04-29T13:48:11;16.30;99.90
15749;DHT22;7976;52.526;13.326;2023-04-29T13:50:38;16.40;99.90
15749;DHT22;7976;52.526;13.326;2023-04-29T13:53:05;16.40;99.90
15749;DHT22;7976;52.526;13.326;2023-04-29T13:55:33;16.30;99.90
15749;DHT22;7976;52.526;13.326;2023-04-29T13:58:00;16.20;99.90
15749;DHT22;7976;52.526;13.326;2023-04-29T14:00:27;16.20;99.90
15749;DHT22;7976;52.526;13.326;2023-04-29T14:02:56;16.10;99.90
15749;DHT22;7976;52.526;13.326;2023-04-29T14:05:23;16.10;99.90
15749;DHT22;7976;52.526;13.326;2023-04-29T14:07:50;16.00;99.90
15749;DHT22;7976;52.526;13.326;2023-04-29T14:10:17;15.90;99.90
15749;DHT22;7976;52.526;13.326;2023-04-29T14:12:43;15.80;99.90
15749;DHT22;7976;52.526;13.326;2023-04-29T14:15:11;15.70;99.90
15749;DHT22;7976;52.526;13.326;2023-04-29T14:17:38;15.70;99.90
15749;DHT22;7976;52.526;13.326;2023-04-29T14:20:07;15.70;99.90
15749;DHT22;7976;52.526;13.326;2023-04-29T14:22:34;15.70;99.90
15749;DHT22;7976;52.526;13.326;2023-04-29T14:25:01;15.80;99.90
15749;DHT22;7976;52.526;13.326;2023-04-29T14:27:28;15.80;99.90
15749;DHT22;7976;52.526;13.326;2023-04-29T14:29:55;15.80;99.90
15749;DHT22;7976;52.526;13.326;2023-04-29T14:32:22;15.90;99.90
15749;DHT22;7976;52.526;13.326;2023-04-29T14:34:49;16.00;99.90
15749;DHT22;7976;52.526;13.326;2023-04-29T14:37:17;16.10;99.90
15749;DHT22;7976;52.526;13.326;2023-04-29T14:39:44;16.10;99.90
15749;DHT22;7976;52.526;13.326;2023-04-29T14:42:11;16.00;99.90
15749;DHT22;7976;52.526;13.326;2023-04-29T14:44:39;16.10;99.90
15749;DHT22;7976;52.526;13.326;2023-04-29T14:47:06;16.20;99.90
15749;DHT22;7976;52.526;13.326;2023-04-29T14:49:33;16.20;99.90
15749;DHT22;7976;52.526;13.326;2023-04-29T14:52:00;16.30;99.90
15749;DHT22;7976;52.526;13.326;2023-04-29T14:54:28;16.50;99.90
15749;DHT22;7976;52.526;13.326;2023-04-29T14:56:55;16.60;99.90
15749;DHT22;7976;52.526;13.326;2023-04-29T14:59:22;16.60;99.90
15749;DHT22;7976;52.526;13.326;2023-04-29T15:01:49;16.70;99.90
15749;DHT22;7976;52.526;13.326;2023-04-29T15:04:16;16.70;99.90
15749;DHT22;7976;52.526;13.326;2023-04-29T15:06:43;16.70;99.90
15749;DHT22;7976;52.526;13.326;2023-04-29T15:09:10;16.80;99.90
15749;DHT22;7976;52.526;13.326;2023-04-29T15:11:39;16.80;99.90
15749;DHT22;7976;52.526;13.326;2023-04-29T15:14:05;16.80;99.90
15749;DHT22;7976;52.526;13.326;2023-04-29T15:16:33;16.70;99.90
15749;DHT22;7976;52.526;13.326;2023-04-29T15:19:00;16.60;99.90
15749;DHT22;7976;52.526;13.326;2023-04-29T15:21:27;16.50;99.90
15749;DHT22;7976;52.526;13.326;2023-04-29T15:23:54;16.40;99.90
15749;DHT22;7976;52.526;13.326;2023-04-29T15:26:21;16.30;99.90
15749;DHT22;7976;52.526;13.326;2023-04-29T15:28:50;16.10;99.90
15749;DHT22;7976;52.526;13.326;2023-04-29T15:31:17;16.10;99.90
15749;DHT22;7976;52.526;13.326;2023-04-29T15:33:43;16.00;99.90
15749;DHT22;7976;52.526;13.326;2023-04-29T15:36:10;16.00;99.90
15749;DHT22;7976;52.526;13.326;2023-04-29T15:38:37;16.00;99.90
15749;DHT22;7976;52.526;13.326;2023-04-29T15:41:04;15.90;99.90
15749;DHT22;7976;52.526;13.326;2023-04-29T15:43:31;15.80;99.90
15749;DHT22;7976;52.526;13.326;2023-04-29T15:46:00;15.80;99.90